x

9449880 - Friday Harbor, Wa (frdw1) Weather Station

6:30 - Tue 21st Oct 2014 All times are PDT. -7 hours from GMT.

  • Wind
    5mph, 7mph gusts
  • Sea Temp 51°f
  • Air Temp 52°f
  • Sea Pressure 1009.6mb
  • 9449880 - Friday Harbor, Wa
  • 9449880 - Friday Harbor, Wa

More Historic Weather Station data

Upgrade to MSW Pro to gain access to the past 30 days of data for over 8000 Wavebouys and Weather Stations around the globe.

Join Pro

Comparision Forecast

View Surf forecast
   
mar. 10/21 6:30 5 7 mph 1009.6mb 51f 52f
6:24 5 8 mph 1009.6mb 51f 52f
6:18 3 7 mph 1009.5mb 51f 52f
6:12 6 9 mph 1009.4mb 51f 52f
6:06 6 9 mph 1009.3mb 51f 52f
6:00 5 9 mph 1009.2mb 51f 53f
5:36 5 7 mph 1008.9mb 51f 53f
5:30 3 6 mph 1008.9mb 51f 53f
5:24 5 6 mph 1008.9mb 51f 53f
5:18 3 7 mph 1008.8mb 51f 53f
5:12 3 7 mph 1008.8mb 51f 53f
5:06 3 6 mph 1008.8mb 51f 53f
5:00 2 6 mph 1008.7mb 51f 53f
4:36 3 8 mph 1008.5mb 51f 53f
4:30 5 9 mph 1008.5mb 51f 53f
4:24 5 7 mph 1008.5mb 51f 53f
4:18 5 7 mph 1008.5mb 51f 53f
4:12 6 10 mph 1008.5mb 51f 53f
4:06 6 9 mph 1008.5mb 51f 53f
4:00 7 11 mph 1008.6mb 51f 52f
3:36 2 5 mph 1008.5mb 51f 52f
3:30 3 8 mph 1008.4mb 51f 52f
3:24 6 10 mph 1008.5mb 51f 52f
3:18 6 8 mph 1008.5mb 51f 52f
3:12 3 6 mph 1008.5mb 51f 52f
3:06 3 5 mph 1008.4mb 51f 53f
3:00 2 5 mph 1008.4mb 51f 53f
2:36 2 5 mph 1008.3mb 51f 53f
2:30 3 6 mph 1008.4mb 51f 53f
2:24 3 6 mph 1008.4mb 51f 53f
2:18 3 5 mph 1008.3mb 51f 53f
2:12 3 5 mph 1008.2mb 51f 53f
2:06 3 5 mph 1008.1mb 51f 53f
2:00 5 6 mph 1008mb 51f 53f
1:36  -  2 mph 1008mb 51f 53f
1:30  -  6 mph 1008mb 51f 53f
1:24 3 6 mph 1008.1mb 51f 53f
1:18  -  3 mph 1008mb 51f 53f
1:12 1 2 mph 1008mb 51f 53f
1:06 1 2 mph 1008mb 51f 52f
1:00 1 3 mph 1007.9mb 51f 52f
12:36 1 2 mph 1007.7mb 51f 53f
12:30 2
mph
1007.7mb 51f 53f
12:24 1 2 mph 1007.7mb 51f 53f
12:18  -  1 mph 1007.8mb 51f 53f
12:12  -  1 mph 1007.8mb 51f 53f
12:06  -  1 mph 1007.9mb 51f 53f
12:00  -  1 mph 1008mb 51f 52f
lun. 10/20 11:36  -  mph 1007.8mb 51f 53f
11:30  -  2 mph 1007.7mb 51f 53f
11:24 1 2 mph 1007.7mb 51f 53f
11:18 1 2 mph 1007.6mb 51f 52f
11:12 1 2 mph 1007.7mb 51f 53f
11:06  -  2 mph 1007.6mb 51f 53f
11:00 3 6 mph 1007.5mb 51f 53f
10:36 2 3 mph 1007.3mb 51f 52f
10:30 2 3 mph 1007.2mb 51f 52f
10:24 2 3 mph 1007.2mb 51f 53f
10:18  -  3 mph 1007.2mb 51f 53f
10:12 2 5 mph 1007.2mb 51f 53f
10:06 1 2 mph 1007.1mb 51f 53f
10:00  -  1 mph 1007.2mb 51f 53f
9:36  -  1 mph 1007.1mb 51f 53f
9:30 2
mph
1007mb 51f 54f
9:24 1 2 mph 1007mb 51f 54f
9:18  -  1 mph 1007mb 51f 54f
9:12  -  1 mph 1007mb 51f 54f
9:06 1 2 mph 1007mb 51f 54f
9:00  -  2 mph 1007mb 51f 54f
8:36  -  mph 1006.9mb 51f 54f
8:30  -  1 mph 1006.9mb 51f 54f
8:24  -  2 mph 1006.9mb 51f 54f
8:18 2
mph
1006.9mb 51f 54f
8:12 1 3 mph 1006.9mb 51f 54f
8:06  -  1 mph 1006.9mb 51f 54f
8:00  -  1 mph 1006.9mb 51f 54f
5:36 1 2 mph 1006.5mb 51f 57f
5:30  -  2 mph 1006.5mb 51f 57f
5:24 2 3 mph 1006.5mb 51f 56f
5:18 1 3 mph 1006.5mb 51f 57f
5:12 2
mph
1006.5mb 51f 58f
5:06  -  2 mph 1006.6mb 51f 58f
5:00  -  1 mph 1006.7mb 51f 58f
4:36  -  1 mph 1006.7mb 51f 58f
4:30 1 2 mph 1006.7mb 51f 58f
4:24  -  2 mph 1006.8mb 51f 58f
4:18 2
mph
1006.7mb 51f 58f
4:12 1 2 mph 1006.6mb 51f 58f
4:06 1 2 mph 1006.6mb 51f 58f
4:00  -  1 mph 1006.7mb 51f 58f
3:36  -  1 mph 1006.7mb 51f 59f
3:30  -  1 mph 1006.6mb 51f 59f
3:24  -  1 mph 1006.7mb 51f 58f
3:18  -  1 mph 1006.7mb 51f 58f
3:12  -  1 mph 1006.7mb 51f 57f
3:06 1 2 mph 1006.7mb 51f 56f
3:00 2
mph
1006.7mb 51f 56f
2:36  -  1 mph 1006.9mb 51f 56f
2:30 1
mph
1006.9mb 51f 56f
2:24  -  1 mph 1006.7mb 51f 56f
2:18  -  1 mph 1006.7mb 51f 56f
2:12  -  2 mph 1006.6mb 51f 56f
2:06 1 2 mph 1006.6mb 51f 56f
2:00 2
mph
1006.6mb 51f 55f
1:36 1 2 mph 1006.6mb 51f 56f
1:30 2
mph
1006.6mb 51f 56f
1:24 2 3 mph 1006.6mb 51f 55f
1:18 3
mph
1006.7mb 51f 55f
1:12 2 3 mph 1006.7mb 51f 55f
1:06  -  1 mph 1006.8mb 51f 55f
1:00  -  3 mph 1006.8mb 51f 55f
12:36 2 3 mph 1006.8mb 51f 55f
12:30 2 3 mph 1006.8mb 51f 55f
12:24  -  1 mph 1006.7mb 51f 55f
12:18  -  2 mph 1006.7mb 51f 55f
12:12 2 3 mph 1006.8mb 51f 55f
12:06 1 2 mph 1006.8mb 51f 55f
12:00  -  2 mph 1006.8mb 51f 55f
11:36 5 7 mph 1006.8mb 51f 54f
11:30 5 7 mph 1006.8mb 51f 54f
11:24 6 7 mph 1006.6mb 51f 54f
11:18 5
mph
1006.5mb 51f 53f
11:12 3 5 mph 1006.5mb 51f 53f
11:06 5 6 mph 1006.5mb 51f 53f
11:00 3 5 mph 1006.4mb 51f 54f
10:36 5 6 mph 1006.5mb 51f 54f
10:30 5 6 mph 1006.4mb 51f 54f
10:24 5
mph
1006.4mb 51f 55f
10:18 5
mph
1006.4mb 51f 54f
10:12 2 3 mph 1006.3mb 51f 54f
10:06 2 6 mph 1006.3mb 51f 54f
10:00 5 6 mph 1006.3mb 51f 54f
9:36 3 6 mph 1006mb 51f 54f
9:30 2 5 mph 1006mb 51f 54f
9:24 1 2 mph 1005.9mb 51f 54f
9:18  -  5 mph 1005.8mb 51f 54f
9:12  -  1 mph 1005.6mb 51f 55f
9:06 1 2 mph 1005.4mb 51f 55f
9:00 3
mph
1005.4mb 51f 55f
8:36 3
mph
1005mb 51f 55f
8:30 3 5 mph 1004.9mb 51f 55f
8:24 3
mph
1004.7mb 51f 55f
8:18 3 5 mph 1004.8mb 51f 55f
8:12 5 6 mph 1004.8mb 51f 56f
8:06 2 5 mph 1004.8mb 51f 56f
8:00  -  mph 1004.7mb 51f 55f
7:36 3 7 mph 1004.3mb 51f 56f
7:30 5 7 mph 1004.2mb 51f 56f
7:24 5 6 mph 1004.3mb 51f 56f
7:18 5 6 mph 1004.4mb 51f 57f
7:12 2 3 mph 1004.5mb 51f 56f
7:06  -  1 mph 1004.7mb 51f 57f
7:00  -  1 mph 1004.6mb 51f 57f
6:54 1 2 mph 1004.5mb 51f 57f
6:48  -  2 mph 1004.5mb 51f 57f
6:36  -  3 mph 1004.7mb 51f 57f
6:30 3 6 mph 1004.7mb 51f 57f
6:24 6 8 mph 1004.7mb 51f 57f
6:18 3 6 mph 1004.6mb 51f 57f
6:12  -  1 mph 1004.5mb 51f 57f
6:06  -  6 mph 1004.5mb 51f 57f
6:00 3 7 mph 1004.6mb 51f 57f
5:54 3 6 mph 1004.6mb 51f 57f
5:48 1 7 mph 1004.5mb 51f 56f
5:36  -  2 mph 1004.6mb 51f 56f
5:30 1 6 mph 1004.5mb 51f 57f
5:24 2 8 mph 1004.5mb 51f 57f
5:18 6 8 mph 1004.5mb 51f 56f
5:12 6 10 mph 1004.3mb 51f 57f
5:06 6 10 mph 1004.4mb 51f 57f
5:00 5 9 mph 1004.5mb 51f 57f
4:54 5 8 mph 1004.4mb 51f 56f
4:48 8 11 mph 1004.5mb 51f 56f
4:36 11 14 mph 1004.5mb 51f 56f
4:30 9 11 mph 1004.5mb 51f 56f
4:24 6 7 mph 1004.6mb 51f 55f
4:18  -  6 mph 1004.6mb 51f 55f
4:12 3 8 mph 1004.5mb 51f 55f
4:06 6 9 mph 1004.4mb 51f 55f
4:00 6 10 mph 1004.3mb 51f 53f
3:54 6 9 mph 1004.2mb 51f 53f
3:48 7 9 mph 1004.3mb 51f 54f
3:36 3 6 mph 1004.6mb 51f 55f
3:30 3 5 mph 1004.5mb 51f 55f
3:24 2 3 mph 1004.6mb 51f 55f
3:18  -  mph 1004.5mb 51f 55f
3:12  -  2 mph - - 55f
3:06  -  1 mph 1004.5mb 51f 55f
3:00  -  2 mph 1004.3mb 51f 55f
2:54  -  2 mph 1004.3mb 51f 55f
2:48  -  1 mph 1004.4mb 51f 55f
2:36  -  1 mph 1004.3mb 51f 55f
2:30  -  1 mph 1004.4mb 51f 55f
2:24  -  1 mph 1004.4mb 51f 55f
2:18  -  1 mph 1004.3mb 51f 55f
2:12  -  3 mph 1004.3mb 51f 55f
2:06 2 3 mph 1004.2mb 51f 55f
2:00 1 2 mph 1004.3mb 51f 55f
1:54 1 2 mph 1004.5mb 51f 55f
1:48 1 2 mph 1004.6mb 51f 55f
1:36 2 5 mph 1004.4mb 51f 54f
1:30  -  1 mph 1004.5mb 51f 54f
1:24 1 3 mph 1004.6mb 51f 54f
1:18 3 5 mph 1004.4mb 51f 53f
1:12 2 5 mph 1004.2mb 51f 54f
1:06 3 7 mph 1004.1mb 51f 52f
1:00 5 6 mph 1004.1mb 51f 53f
12:54 5
mph
1004.2mb 51f 53f
12:48 3 5 mph 1004.6mb 51f 52f
12:36 3
mph
1004.5mb 51f 54f
12:30 1 2 mph 1004.8mb 51f 54f
12:24  -  1 mph 1004.8mb 51f 55f
12:18  -  mph 1004.8mb 51f 54f
12:12  -  2 mph 1004.8mb 51f 54f
12:06  -  1 mph 1004.8mb 51f 54f
12:00 2 3 mph 1004.9mb 51f 54f
dim. 10/19 11:54  -  2 mph 1004.8mb 51f 55f
11:48  -  1 mph 1004.6mb 51f 55f
11:36 1 2 mph 1005mb 51f 55f
11:30  -  3 mph 1005mb 51f 54f
11:24 2 3 mph 1004.9mb 51f 54f
11:18 3 5 mph 1004.5mb 51f 54f
11:12 1 3 mph 1004.5mb 51f 53f
11:06 2 5 mph 1004.3mb 51f 54f
11:00 2 3 mph 1004.3mb 51f 54f
10:54 1 2 mph 1004.1mb 51f 54f
10:48 2 3 mph 1004mb 51f 54f
10:36 3 6 mph 1004.4mb 51f 54f
10:30  -  2 mph 1004.2mb 51f 55f
10:24  -  2 mph 1004.2mb 51f 55f
10:18 2 3 mph 1004.3mb 51f 55f
10:12 2 5 mph 1004.3mb 51f 54f
10:06 2 6 mph 1004.4mb 51f 53f
10:00 5 7 mph 1004.3mb 51f 53f
9:36 1 3 mph 1003.9mb 51f 57f
9:30  -  2 mph 1003.7mb 51f 57f
9:24  -  6 mph 1003.8mb 51f 57f
9:18 6 8 mph 1003.9mb 51f 56f
9:12 6 9 mph 1004mb 51f 58f
9:06 8 9 mph 1003.8mb 51f 59f
9:00 7 8 mph 1003.6mb 51f 60f
8:54 1 5 mph 1003.3mb 51f 61f
8:48 2 6 mph 1003.1mb 51f 61f
8:30 5 7 mph 1003.3mb 51f 61f
8:24 5 9 mph 1003.3mb 51f 62f
8:18 6 11 mph 1003.5mb 51f 62f
8:12 7 9 mph 1003.7mb 51f 61f
8:06 6 11 mph 1003.3mb 51f 61f
8:00 7 13 mph 1003.6mb 51f 61f
7:54 8 13 mph 1003.6mb 51f 61f
7:48 7 11 mph 1003.6mb 51f 61f
7:36 9 11 mph 1003.4mb 51f 62f
7:30 9 11 mph 1003.4mb 51f 61f
7:24 10 14 mph 1003.3mb 51f 61f
7:18 11 15 mph 1003.2mb 51f 60f
7:12 10 13 mph 1003.1mb 51f 60f
7:06 11 15 mph 1003.2mb 51f 61f
7:00 11 16 mph 1003.1mb 51f 61f
6:54 8 13 mph 1003mb 51f 62f
6:48 10 16 mph 1003mb 51f 63f
6:36 7 11 mph 1002.8mb 51f 64f
6:30 9 14 mph 1002.8mb 51f 64f
6:24 9 15 mph 1002.6mb 51f 65f
6:18 6 9 mph 1002.7mb 51f 64f
6:12 7 14 mph 1002.8mb 51f 64f
6:06 6 10 mph 1002.7mb 51f 64f
6:00 6 11 mph 1002.7mb 51f 64f
5:54 6 13 mph 1002.8mb 51f 64f
5:48 7 10 mph 1002.9mb 51f 65f
5:36 5 7 mph 1003mb 51f 64f
5:30 6 10 mph 1003mb 51f 63f
5:24 6 9 mph 1003.1mb 51f 63f
5:18 7 11 mph 1003.1mb 51f 63f
5:12 8 11 mph 1003.1mb 51f 65f
5:06 7 14 mph 1003mb 51f 64f
5:00 8 14 mph 1003mb 51f 64f
4:54 7 13 mph 1003mb 51f 65f
4:48 8 15 mph 1003mb 51f 65f
4:36 8 14 mph 1003.1mb 51f 64f
4:30 9 17 mph 1003.2mb 51f 64f
4:24 9 17 mph 1003.3mb 51f 64f
4:18 10 15 mph 1003.3mb 51f 64f
4:12 8 15 mph 1003.2mb 51f 64f
4:06 11 18 mph 1003.2mb 51f 64f
4:00 11 17 mph 1003.2mb 51f 65f
3:54 10 15 mph 1003.3mb 51f 65f
3:48 11 17 mph 1003.2mb 51f 66f
3:36 11 18 mph 1003.2mb 51f 67f
3:30 13 22 mph 1003.2mb 51f 67f
3:24 13 23 mph 1003.2mb 51f 67f
3:18 13 18 mph 1003.2mb 51f 67f
3:12 11 23 mph 1003.2mb 51f 66f
3:06 13 20 mph 1003.3mb 51f 65f
3:00 11 18 mph 1003.4mb 51f 65f
2:54 13 18 mph 1003.5mb 51f 64f
2:48 13 17 mph 1003.6mb 51f 65f
2:36 7 14 mph 1003.7mb 51f 65f
2:30 8 16 mph 1003.8mb 51f 64f
2:24 13 20 mph 1003.8mb 51f 64f
2:18 9 14 mph 1003.9mb 51f 65f
2:12 9 14 mph 1004mb 51f 64f
2:06 9 16 mph 1004mb 51f 64f
2:00 9 15 mph 1004mb 51f 65f
1:54 8 16 mph 1004mb 51f 64f
1:48 10 16 mph 1004.1mb 51f 64f
1:36 13 20 mph 1004.3mb 51f 64f
1:30 10 21 mph 1004.3mb 51f 64f
1:24 9 20 mph 1004.3mb 51f 64f
1:18 13 20 mph 1004.3mb 51f 64f
1:12 9 14 mph 1004.3mb 51f 64f
1:06 8 14 mph 1004.3mb 51f 64f
1:00 13 20 mph 1004.3mb 51f 64f
12:54 9 16 mph 1004.4mb 51f 64f
12:48 11 14 mph 1004.5mb 51f 64f
12:36 11 18 mph 1004.5mb 51f 63f
12:30 10 15 mph 1004.7mb 51f 63f
12:24 13 20 mph 1004.7mb 51f 62f
12:18 14 24 mph 1004.8mb 51f 62f
12:12 14 18 mph 1004.9mb 51f 62f
12:06 14 21 mph 1004.9mb 51f 63f
12:00 10 17 mph 1004.7mb 51f 63f
11:54 8 15 mph 1004.7mb 51f 63f
11:48 13 21 mph 1004.7mb 51f 63f
11:36 14 20 mph 1004.5mb 51f 64f
11:30 14 20 mph 1004.4mb 51f 65f
11:24 13 20 mph 1004.3mb 51f 68f
11:18 11 20 mph 1004.2mb 51f 68f
11:12 8 24 mph 1004.1mb 51f 67f
11:06 11 18 mph 1003.9mb 51f 66f
11:00 10 17 mph 1003.9mb 51f 67f
10:54 13 17 mph 1003.9mb 51f 66f
10:48 11 17 mph 1003.8mb 51f 66f
10:36 13 21 mph 1003.7mb 51f 66f
10:30 14 21 mph 1003.8mb 51f 67f
10:24 13 18 mph 1003.7mb 51f 67f
10:18 10 15 mph 1003.8mb 51f 63f
10:12 10 14 mph 1003.8mb 51f 60f
10:06 9 20 mph 1003.9mb 51f 63f
10:00 8 16 mph 1003.9mb 51f 63f
9:36 10 13 mph 1004.2mb 51f 60f
9:30 10 13 mph 1004.4mb 51f 61f
9:24 9 13 mph 1004.4mb 51f 62f
9:18 9 10 mph 1004.4mb 51f 62f
9:12 8 11 mph 1004.5mb 51f 62f
9:06 6 8 mph 1004.6mb 51f 62f
9:00 6 8 mph 1004.6mb 51f 61f
8:54 6 9 mph 1004.6mb 51f 61f
8:48 7 10 mph 1004.6mb 51f 62f
8:36 6 9 mph 1004.7mb 51f 61f
8:30 6 10 mph 1004.7mb 51f 61f
8:24 7 10 mph 1004.6mb 51f 61f
8:18 9 13 mph 1004.7mb 51f 62f
8:12 6 11 mph 1004.6mb 51f 62f
8:06 6 9 mph 1004.8mb 51f 62f
8:00 5 9 mph 1004.9mb 51f 61f
7:54 7 10 mph 1004.8mb 51f 61f
7:48 7 11 mph 1004.8mb 51f 60f
7:36 9 11 mph 1004.7mb 51f 59f
7:30 6 7 mph 1004.8mb 51f 59f
7:24 3 5 mph 1004.7mb 51f 58f
7:18 3 5 mph 1004.8mb 51f 58f
7:12 3 5 mph 1004.9mb 51f 57f
7:06 2 6 mph 1005mb 51f 57f
7:00 2 6 mph 1005.1mb 51f 56f
6:54 2 5 mph 1005.2mb 51f 56f
6:48  -  2 mph 1005.3mb 51f 55f
6:36 1 3 mph 1005.5mb 51f 56f
6:30 2 7 mph 1005.5mb 51f 57f
6:24 6 7 mph 1005.5mb 51f 57f
6:18 1 2 mph 1006mb 51f 57f
6:12 1 2 mph 1006.1mb 51f 57f
6:06  -  1 mph 1006.1mb 51f 57f
6:00  -  2 mph 1006.2mb 51f 57f
5:54  -  2 mph 1006.3mb 51f 57f
5:48 1 3 mph 1006.3mb 51f 56f
2:06  -  mph 1008mb 51f -
2:00  -  mph 1008.1mb 51f -
1:54  -  mph 1008.2mb 51f -
1:48  -  mph 1008.3mb 51f -
1:36  -  1 mph 1008.5mb 51f 55f
1:30 1
mph
1008.6mb 51f 56f
1:24 2 5 mph 1008.6mb 51f 56f
1:18  -  2 mph 1008.6mb 51f 56f
1:12 1 2 mph 1008.7mb 51f 56f
1:06 1 2 mph 1008.6mb 51f 56f
1:00  -  3 mph 1008.7mb 51f 57f
12:54  -  1 mph 1008.8mb 51f 59f
12:48  -  1 mph 1008.8mb 51f 59f
12:36 2 3 mph 1008.7mb 51f 58f
12:30 1 5 mph 1008.7mb 51f 61f
12:24 3 7 mph 1008.6mb 51f 61f
12:18 5 7 mph 1008.5mb 51f 61f
12:12 5 7 mph 1008.5mb 51f 60f
12:06 5 7 mph 1008.6mb 51f 62f
12:00 5 7 mph 1008.6mb 51f 62f
sam. 10/18 11:54 5 7 mph 1008.6mb 51f 62f
11:48 5 6 mph 1008.5mb 51f 62f
11:36 6 8 mph 1008.6mb 51f 62f
11:30 5 7 mph 1008.7mb 51f 62f
11:24 5 7 mph 1008.7mb 51f 61f
11:18 3 6 mph 1008.7mb 51f 61f
11:12 2 5 mph 1008.7mb 51f 61f
11:06 3 7 mph 1008.8mb 51f 62f
11:00 2 5 mph 1008.9mb 51f 61f
10:54 2 5 mph 1009.1mb 51f 61f
10:48 2 5 mph 1009.1mb 51f 61f
10:36 2 3 mph 1009.3mb 51f 61f
10:30 2 3 mph 1009.4mb 51f 60f
10:24 2 5 mph 1009.4mb 51f 60f
10:18 3 6 mph 1009.5mb 51f 60f
10:12 5
mph
1009.5mb 51f 60f
10:06 3 5 mph 1009.6mb 51f 60f
10:00 3 5 mph 1009.7mb 51f 59f
9:54 2 3 mph 1009.8mb 51f 58f
9:48 1 3 mph 1009.8mb 51f 58f
9:36 2 5 mph 1010mb 51f 58f
9:30 3 5 mph 1010.1mb 51f 58f
9:24 3 6 mph 1010.1mb 51f 58f
9:18 3 7 mph 1010.2mb 51f 58f
9:12 3 5 mph 1010.3mb 51f 58f
9:06 2 5 mph 1010.4mb 51f 58f
9:00 2 3 mph 1010.4mb 51f 59f
8:54 2 3 mph 1010.5mb 51f 59f
8:48 2 5 mph 1010.6mb 51f 59f
8:36 3 5 mph 1010.9mb 51f 59f
8:30 5 7 mph 1011mb 51f 59f
8:24 7
mph
1011mb 51f 58f
8:18 6 7 mph 1011.2mb 51f 57f
8:12 2 5 mph 1011.2mb 51f 57f
8:06 2 3 mph 1011.2mb 51f 57f
8:00 2 3 mph 1011.3mb 51f 58f
7:54 3 6 mph 1011.4mb 51f 58f
7:48 2 5 mph 1011.4mb 51f 58f
7:36 1 2 mph 1011.5mb 51f 59f
7:30 1 2 mph 1011.6mb 51f 59f
7:24  -  1 mph 1011.7mb 51f 58f
7:18  -  1 mph 1011.6mb 51f 58f
7:12  -  2 mph 1011.7mb 51f 58f
7:06 1 3 mph 1011.9mb 51f 58f
7:00 2 3 mph 1011.9mb 51f 58f
6:54  -  3 mph 1011.8mb 51f 58f
6:48 6 8 mph 1012mb 51f 58f
6:36 3 7 mph 1012mb 51f 58f
6:30 5 7 mph 1011.9mb 51f 58f
6:24 3 6 mph 1012mb 51f 58f
6:18 2 5 mph 1012mb 51f 58f
6:12 5 7 mph 1012mb 51f 58f
6:06 3 7 mph 1012mb 51f 58f
6:00 3 6 mph 1012.1mb 51f 58f
5:54 2 6 mph 1012mb 51f 58f
5:48 6 8 mph 1012mb 51f 58f
5:36 7 9 mph 1012.1mb 51f 58f
5:30 8 9 mph 1012.2mb 51f 59f
5:24 7 8 mph 1012.2mb 51f 59f
5:18 3 8 mph 1012mb 51f 60f
5:12 8 9 mph 1012.2mb 51f 59f
5:06 7 9 mph 1012.2mb 51f 60f
5:00 6 9 mph 1012.2mb 51f 62f
4:54 7 10 mph 1012.3mb 51f 63f
4:48 5 8 mph 1012.4mb 51f 63f
4:36 5 9 mph 1012.3mb 51f 62f
4:30 6 9 mph 1012.2mb 51f 62f
4:24 6 9 mph 1012.4mb 51f 62f
4:18 6 8 mph 1012.6mb 51f 63f
4:12 5 8 mph 1012.7mb 51f 63f
4:06 5 8 mph 1012.7mb 51f 63f
4:00 6 9 mph 1012.6mb 51f 63f
3:54 2 6 mph 1012.8mb 51f 62f
3:48 1 6 mph 1012.8mb 51f 63f
3:36 2 5 mph 1012.6mb 51f 62f
3:30 3 5 mph 1012.5mb 51f 62f
3:24 3 5 mph 1012.5mb 51f 62f
3:18 2 3 mph 1012.7mb 51f 62f
3:12 2
mph
1012.7mb 51f 62f
3:06 2 3 mph 1012.7mb 51f 62f
3:00  -  2 mph 1012.7mb 51f 62f
2:54  -  2 mph 1012.8mb 51f 63f
2:48  -  5 mph 1012.9mb 51f 61f
2:36 3 6 mph 1013mb 51f 60f
2:30 2 3 mph 1013mb 51f 59f
2:24 2 6 mph 1013mb 51f 60f
2:18 3 5 mph 1013.1mb 51f 61f
2:12 3 6 mph 1013.2mb 51f 61f
2:06 3 5 mph 1013.2mb 51f 61f
2:00 2 5 mph 1013.2mb 51f 62f
1:54 2 5 mph 1013mb 51f 62f
1:48 3 5 mph 1013.1mb 51f 62f
1:36 3 5 mph 1013.3mb 51f 61f
1:30 2 5 mph 1013.3mb 51f 61f
1:24 2 3 mph 1013.2mb 51f 61f
1:18 1 2 mph 1013.2mb 51f 61f
1:12 2
mph
1013.3mb 51f 60f
1:06 1 2 mph 1013.3mb 51f 60f
1:00 2 5 mph 1013.4mb 51f 59f
12:54 5 6 mph 1013.4mb 51f 58f
12:48 5 7 mph 1013.3mb 51f 58f
12:36 3 6 mph 1013.2mb 51f 58f
12:30 2 5 mph 1013.2mb 51f 59f
12:24 2 3 mph 1013.1mb 51f 58f
12:18 2 5 mph 1013mb 51f 58f
12:12 2 5 mph 1012.9mb 51f 58f
12:06 2 3 mph 1013mb 51f 58f
12:00 3 5 mph 1012.9mb 51f 57f
11:54 2 5 mph 1013mb 51f 58f
11:48 2 3 mph 1012.9mb 51f 59f
11:36 3 5 mph 1012.8mb 51f 58f
11:30 2 3 mph 1012.8mb 51f 58f
11:24 3 5 mph 1012.8mb 51f 58f
11:18 3 5 mph 1012.8mb 51f 58f
11:12 3 6 mph 1012.8mb 51f 58f
11:06 3 7 mph 1012.8mb 51f 58f
11:00 3 6 mph 1012.8mb 51f 58f
10:54 6 7 mph 1012.8mb 51f 58f
10:48 6 7 mph 1012.8mb 51f 58f
10:36 5 6 mph 1012.6mb 51f 56f
10:30 5 6 mph 1012.5mb 51f 56f
10:24 5 6 mph 1012.5mb 51f 56f
10:18 5 6 mph 1012.5mb 51f 57f
10:12 3 6 mph 1012.5mb 51f 56f
10:06 3 5 mph 1012.5mb 51f 56f
10:00 2 3 mph 1012.5mb 51f 56f
9:54 2 6 mph 1012.3mb 51f 57f
9:48 5 7 mph 1012.2mb 51f 57f
9:36 6 8 mph 1012mb 51f 56f
9:30 5 7 mph 1012.1mb 51f 55f
9:24 6 7 mph 1012.1mb 51f 56f
9:18 2 5 mph 1012.1mb 51f 56f
9:12  -  2 mph 1011.9mb 51f 56f
9:06 1 2 mph 1011.9mb 51f 56f
9:00 2 6 mph 1011.8mb 51f 57f
8:54 5 6 mph 1011.8mb 51f 57f
8:48 2 3 mph 1011.8mb 51f 57f
8:36  -  3 mph 1011.7mb 51f 56f
8:30 1 3 mph 1011.6mb 51f 56f
8:24  -  2 mph 1011.7mb 51f 56f
8:18  -  3 mph 1011.7mb 51f 56f
8:12  -  2 mph 1011.7mb 51f 56f
8:06  -  3 mph 1011.7mb 51f 56f
8:00 1 3 mph 1011.6mb 51f 56f
7:54 1 2 mph 1011.6mb 51f 56f
7:48  -  2 mph 1011.6mb 51f 55f
7:36 1 2 mph 1011.4mb 51f 56f
7:30 2 3 mph 1011.3mb 51f 56f
7:24 2 6 mph 1011.3mb 51f 55f
7:18 2 5 mph 1011.3mb 51f 55f
7:12 3 5 mph 1011.3mb 51f 55f
7:06 2 5 mph 1011.4mb 51f 55f
7:00 3 5 mph 1011.5mb 51f 55f
6:54 2 5 mph 1011.5mb 51f 55f
6:48 2 5 mph 1011.5mb 51f 55f
6:36 2 6 mph 1011.4mb 51f 56f
6:30 3 6 mph 1011.2mb 51f 55f
6:24 5 8 mph 1011.2mb 51f 55f
6:18 5 7 mph 1011.2mb 51f 55f
6:12 3 5 mph 1011.2mb 51f 55f
6:06 3 5 mph 1011.3mb 51f 55f
6:00 3 6 mph 1011.3mb 51f 55f
5:54 3 6 mph 1011.3mb 51f 55f
5:48 3 6 mph 1011.3mb 51f 55f
5:36 3 6 mph 1011.2mb 51f 55f
5:30 2 6 mph 1011.2mb 51f 55f
5:24 2 3 mph 1011.2mb 51f 55f
5:18 3 5 mph 1011mb 51f 55f
5:12 3 6 mph 1011mb 51f 55f
5:06 3 6 mph 1011mb 51f 55f
5:00 2 5 mph 1011mb 51f 55f
4:54 2 5 mph 1010.9mb 51f 55f
4:48 3 5 mph 1010.9mb 51f 54f
4:36  -  3 mph 1010.9mb 51f 55f
4:30 2 5 mph 1010.8mb 51f 55f
4:24 2 5 mph 1010.7mb 51f 55f
4:18 2 6 mph 1010.7mb 51f 56f
4:12 3 6 mph 1010.6mb 51f 56f
4:06 3 6 mph 1010.8mb 51f 56f
4:00 5 6 mph 1010.9mb 51f 57f
3:54 2 5 mph 1010.9mb 51f 57f
3:48 3 5 mph 1010.9mb 51f 57f
3:36 2 6 mph 1010.8mb 51f 57f
3:30 2 6 mph 1010.7mb 51f 57f
3:24 2 6 mph 1010.6mb 51f 56f
3:18 5 6 mph 1010.2mb 51f 56f
3:12 5 6 mph 1010.3mb 51f 56f
3:06 6 8 mph 1010.3mb 51f 57f
3:00 5 7 mph 1010.3mb 51f 57f
2:54 5 8 mph 1010.3mb 51f 57f
2:48 3 7 mph 1010.3mb 51f 56f
2:36 3 7 mph 1010.2mb 51f 56f
2:30 3 7 mph 1010.2mb 51f 56f
2:24 5 6 mph 1010.1mb 51f 56f
2:18 3 6 mph 1010.1mb 51f 56f
2:12 2 6 mph 1010mb 51f 55f
2:06 5 7 mph 1009.9mb 51f 55f
2:00 5 7 mph 1009.8mb 51f 56f
1:54 5 6 mph 1009.8mb 51f 56f
1:48 3 6 mph 1009.8mb 51f 56f
1:36 2 3 mph 1009.8mb 51f 56f
1:30 2 6 mph 1009.8mb 51f 56f
1:24 6 7 mph 1009.5mb 51f 56f
1:18 6 7 mph 1009.6mb 51f 56f
1:12 6
mph
1009.5mb 51f 56f
1:06 5 6 mph 1009.6mb 51f 56f
1:00 5 6 mph 1009.6mb 51f 56f
12:54 3 6 mph 1009.6mb 51f 56f
12:48 3 8 mph 1009.6mb 51f 57f
12:36 5 8 mph 1009.5mb 51f 57f
12:30 6 8 mph 1009.5mb 51f 57f
12:24 6 8 mph 1009.6mb 51f 57f
12:18 7 9 mph 1009.7mb 51f 57f
12:12 6 8 mph 1009.5mb 51f 57f
12:06 7 13 mph 1009.4mb 51f 57f
12:00 6 10 mph 1009.3mb 51f 57f
ven. 10/17 11:54 6 8 mph 1009.2mb 51f 57f
11:48 6 10 mph 1009.2mb 51f 57f
11:36 6 10 mph 1009.2mb 51f 57f
11:30 5 10 mph 1009.2mb 51f 57f
11:24 6 9 mph 1009.2mb 51f 57f
11:18 7 11 mph 1009.2mb 51f 57f
11:12 6 10 mph 1009.1mb 51f 57f
11:06 7 11 mph 1008.9mb 51f 56f
11:00 7 14 mph 1008.9mb 51f 56f
10:54 9 15 mph 1008.9mb 51f 57f
10:48 9 18 mph 1009mb 51f 57f
10:36 10 18 mph 1008.6mb 51f 57f
10:30 10 17 mph 1008.5mb 51f 57f
10:24 13 18 mph 1008.4mb 51f 57f
10:18 10 15 mph 1008.4mb 51f 57f
10:12 13 22 mph 1008.2mb 51f 57f
10:06 15 24 mph 1008mb 51f 57f
10:00 14 21 mph 1007.9mb 51f 57f
9:54 11 21 mph 1008mb 51f 57f
9:48 11 20 mph 1007.9mb 51f 57f
9:36 11 16 mph 1008mb 51f 57f
9:30 11 22 mph 1007.8mb 51f 57f
9:24 10 17 mph 1007.8mb 51f 57f
9:18 11 22 mph 1007.8mb 51f 57f
9:12 9 15 mph 1007.7mb 51f 57f
9:06 8 17 mph 1007.7mb 51f 57f
9:00 8 16 mph 1007.6mb 51f 57f
8:54 9 17 mph 1007.5mb 51f 57f
8:48 11 17 mph 1007.6mb 51f 57f
8:36 11 22 mph 1007.5mb 51f 57f
8:30 10 17 mph 1007.5mb 51f 57f
8:24 8 15 mph 1007.4mb 51f 57f
8:18 10 16 mph 1007.4mb 51f 57f
8:12 9 14 mph 1007.4mb 51f 57f
8:06 10 20 mph 1007.1mb 51f 57f
8:00 11 17 mph 1007mb 51f 57f
7:54 11 20 mph 1006.9mb 51f 57f
7:48 10 14 mph 1006.9mb 51f 57f
7:36  -  mph - 51f -
7:30  -  mph - 51f -
7:24  -  mph - 51f -
7:18  -  mph - 51f -
7:12  -  mph - 51f -
7:06  -  mph - 51f -
7:00  -  mph - 51f -
6:54  -  mph - 51f -
6:48  -  mph - 51f -
6:36 10 15 mph 1006.2mb 51f 58f
6:30 8 20 mph 1006.3mb 51f 58f
6:24 11 16 mph 1006.2mb 51f 58f
6:18 8 15 mph 1006.2mb 51f 58f
6:12 9 17 mph 1006.1mb 51f 58f
6:06 10 15 mph 1006mb 51f 58f
6:00 11 16 mph 1005.9mb 51f 58f
5:54 9 16 mph 1006mb 51f 58f
5:48 8 20 mph 1005.9mb 51f 58f
5:36 13 20 mph 1005.8mb 51f 58f
5:30 11 20 mph 1005.8mb 51f 58f
5:24 14 21 mph 1005.8mb 51f 58f
5:18 11 18 mph 1005.6mb 51f 58f
5:12 13 20 mph 1005.5mb 51f 58f
5:06 11 21 mph 1005.5mb 51f 58f
5:00 13 25 mph 1005.3mb 51f 59f
4:54 14 22 mph 1005.2mb 51f 59f
4:48 18 26 mph 1005.1mb 51f 59f
4:36 14 24 mph 1005mb 51f 59f
4:30 16 24 mph 1005mb 51f 59f
4:24 14 20 mph 1005mb 51f 59f
4:18 14 22 mph 1005mb 51f 59f
4:12 14 23 mph 1005mb 51f 59f
4:06 14 24 mph 1005mb 51f 59f
4:00 11 17 mph 1004.9mb 51f 59f
3:54 11 18 mph 1004.8mb 51f 59f
3:48 11 21 mph 1004.7mb 51f 59f
3:36 15 21 mph 1004.5mb 51f 59f
3:30 11 20 mph 1004.6mb 51f 59f
3:24 11 21 mph 1004.5mb 51f 59f
3:18 13 21 mph 1004.4mb 51f 59f
3:12 14 22 mph 1004.4mb 51f 60f
3:06 13 22 mph 1004.4mb 51f 60f
3:00 11 22 mph 1004.3mb 51f 60f
2:54 15 29 mph 1004.2mb 51f 61f
2:48 13 21 mph 1004.1mb 51f 61f
2:36 11 24 mph 1004.1mb 51f 60f
2:30 14 25 mph 1004.2mb 51f 60f
2:24 14 23 mph 1004.1mb 51f 60f
2:18 14 23 mph 1004.2mb 51f 60f